Time;durP1;ratioP1;P1;durP2;ratioP2;P2;SDS_P1;SDS_P2;PMS_P1;PMS_P2;Temp;Humidity;BMP_temperature;BMP_pressure;BME280_temperature;BME280_humidity;BME280_pressure;Samples;Min_cycle;Max_cycle;Signal;HPM_P1;HPM_P2
2023/03/11 00:00:44;;;;;;;29.77;16.25;;;-0.70;99.90;;;;;;5113081;27;20032;-45
2023/03/11 00:03:16;;;;;;;26.25;16.33;;;-0.70;99.90;;;;;;5107621;27;20107;-46
2023/03/11 00:05:43;;;;;;;36.35;18.92;;;-0.80;99.90;;;;;;5113650;27;20095;-42
2023/03/11 00:08:15;;;;;;;39.40;19.73;;;-0.70;99.90;;;;;;5113676;27;20111;-43
2023/03/11 00:10:43;;;;;;;50.28;24.27;;;-0.70;99.90;;;;;;5113519;28;20115;-42
2023/03/11 00:13:11;;;;;;;52.47;25.15;;;-0.70;99.90;;;;;;5113473;28;20019;-49
2023/03/11 00:15:39;;;;;;;59.60;26.55;;;-0.70;99.90;;;;;;5101848;27;20107;-43
2023/03/11 00:18:05;;;;;;;62.92;26.60;;;-0.60;99.90;;;;;;5111261;27;20026;-47
2023/03/11 00:20:34;;;;;;;38.17;16.77;;;-0.50;99.90;;;;;;5113298;28;20028;-43
2023/03/11 00:23:01;;;;;;;21.80;12.27;;;-0.40;99.90;;;;;;5113625;27;20008;-47
2023/03/11 00:25:29;;;;;;;22.95;12.52;;;-0.20;99.90;;;;;;5121357;27;20032;-50
2023/03/11 00:27:55;;;;;;;17.45;11.02;;;-0.10;99.90;;;;;;5124318;27;20098;-42
2023/03/11 00:30:22;;;;;;;20.83;11.63;;;0.00;99.90;;;;;;5125659;27;20031;-50
2023/03/11 00:32:50;;;;;;;21.23;12.50;;;0.10;99.90;;;;;;5120456;27;20043;-42
2023/03/11 00:35:20;;;;;;;19.98;11.55;;;0.10;99.90;;;;;;5102756;28;20024;-41
2023/03/11 00:37:46;;;;;;;22.73;12.75;;;0.10;99.90;;;;;;5125746;27;20024;-41
2023/03/11 00:40:15;;;;;;;22.77;12.77;;;0.00;99.90;;;;;;5113021;28;20028;-48
2023/03/11 00:42:40;;;;;;;21.33;11.52;;;0.00;99.90;;;;;;5112713;28;20020;-50
2023/03/11 00:45:06;;;;;;;19.13;11.32;;;0.00;99.90;;;;;;5112694;28;20027;-50
2023/03/11 00:47:32;;;;;;;19.20;11.45;;;0.00;99.90;;;;;;5111740;28;20404;-41
2023/03/11 00:49:59;;;;;;;18.08;10.82;;;-0.10;99.90;;;;;;5111688;28;20031;-43
2023/03/11 00:52:24;;;;;;;19.95;11.93;;;-0.10;99.90;;;;;;5112533;28;20024;-46
2023/03/11 00:54:50;;;;;;;19.52;11.15;;;-0.20;99.90;;;;;;5112586;28;20030;-42
2023/03/11 00:57:16;;;;;;;17.65;10.45;;;-0.20;99.90;;;;;;5112417;28;20019;-42
2023/03/11 00:59:42;;;;;;;19.08;10.45;;;-0.30;99.90;;;;;;5111356;28;20593;-47
2023/03/11 01:02:07;;;;;;;16.77;10.73;;;-0.30;99.90;;;;;;5112460;28;20023;-43
2023/03/11 01:04:33;;;;;;;16.02;9.85;;;-0.30;99.90;;;;;;5112580;28;20023;-45
2023/03/11 01:06:58;;;;;;;17.10;9.80;;;-0.40;99.90;;;;;;5113943;27;20064;-44
2023/03/11 01:09:24;;;;;;;19.13;10.68;;;-0.50;99.90;;;;;;5112417;27;20100;-42
2023/03/11 01:11:50;;;;;;;16.23;10.23;;;-0.40;99.90;;;;;;5112243;28;20032;-42
2023/03/11 01:14:16;;;;;;;18.20;10.70;;;-0.50;99.90;;;;;;5112229;28;20022;-45
2023/03/11 01:16:42;;;;;;;15.77;10.10;;;-0.50;99.90;;;;;;5112050;28;20479;-47
2023/03/11 01:19:08;;;;;;;20.13;10.85;;;-0.60;99.90;;;;;;5112387;28;20068;-44
2023/03/11 01:21:33;;;;;;;21.38;11.55;;;-0.60;99.90;;;;;;5112184;28;20024;-46
2023/03/11 01:23:59;;;;;;;18.70;11.77;;;-0.80;99.90;;;;;;5112118;28;20024;-51
2023/03/11 01:26:24;;;;;;;21.75;11.75;;;-0.80;99.90;;;;;;5111067;28;20403;-54
2023/03/11 01:28:50;;;;;;;24.02;11.65;;;-0.80;99.90;;;;;;5111881;28;20365;-42
2023/03/11 01:31:16;;;;;;;19.08;10.23;;;-0.80;99.90;;;;;;5111961;28;20031;-50
2023/03/11 01:33:41;;;;;;;18.98;10.07;;;-0.80;99.90;;;;;;5100729;28;20399;-47
2023/03/11 01:36:07;;;;;;;17.98;10.63;;;-0.70;99.90;;;;;;5108535;28;20054;-53
2023/03/11 01:38:33;;;;;;;23.98;11.25;;;-0.60;99.90;;;;;;5122878;27;20111;-42
2023/03/11 01:40:58;;;;;;;19.02;10.68;;;-0.60;99.90;;;;;;5111677;27;20434;-45
2023/03/11 01:43:42;;;;;;;20.60;10.90;;;-0.70;99.90;;;;;;5111863;28;20043;-42
2023/03/11 01:46:19;;;;;;;18.60;10.32;;;-0.60;99.90;;;;;;5111636;28;20051;-42
2023/03/11 01:48:47;;;;;;;20.08;10.55;;;-0.60;99.90;;;;;;5111908;28;20016;-43
2023/03/11 01:51:16;;;;;;;22.37;11.60;;;-0.50;99.90;;;;;;5111614;28;20032;-42
2023/03/11 01:53:42;;;;;;;18.30;11.13;;;-0.60;99.90;;;;;;5111625;28;20063;-46
2023/03/11 01:56:08;;;;;;;18.33;11.00;;;-0.50;99.90;;;;;;5111785;28;20442;-42
2023/03/11 01:58:38;;;;;;;20.67;11.40;;;-0.50;99.90;;;;;;5111425;28;20024;-43
2023/03/11 02:01:04;;;;;;;19.00;10.63;;;-0.50;99.90;;;;;;5111327;28;20072;-46
2023/03/11 02:03:33;;;;;;;16.98;10.50;;;-0.50;99.90;;;;;;5111035;28;20069;-42
2023/03/11 02:06:02;;;;;;;18.20;10.70;;;-0.60;99.90;;;;;;5111371;28;20468;-42
2023/03/11 02:08:29;;;;;;;16.65;10.65;;;-0.60;99.90;;;;;;5111456;27;20039;-43
2023/03/11 02:10:55;;;;;;;18.85;10.98;;;-0.60;99.90;;;;;;5111443;28;20042;-47
2023/03/11 02:13:21;;;;;;;18.20;10.25;;;-0.60;99.90;;;;;;5111304;27;20020;-46
2023/03/11 02:15:47;;;;;;;17.98;10.32;;;-0.70;99.90;;;;;;5111361;28;20016;-45
2023/03/11 02:18:14;;;;;;;19.88;10.23;;;-0.70;99.90;;;;;;5111042;28;20426;-43
2023/03/11 02:20:49;;;;;;;17.67;10.00;;;-0.80;99.90;;;;;;5109683;28;20019;-46
2023/03/11 02:23:17;;;;;;;16.20;9.32;;;-0.80;99.90;;;;;;5110862;28;20015;-48
2023/03/11 02:26:09;;;;;;;17.85;10.15;;;-0.90;99.90;;;;;;5111273;28;20111;-44
2023/03/11 02:28:37;;;;;;;16.55;8.70;;;-0.90;99.90;;;;;;5109757;28;20020;-44
2023/03/11 02:31:04;;;;;;;15.43;8.35;;;-1.00;99.90;;;;;;5111139;28;20024;-44
2023/03/11 02:33:31;;;;;;;17.65;9.40;;;-1.00;99.90;;;;;;5101817;28;20024;-48
2023/03/11 02:35:57;;;;;;;17.08;9.10;;;-1.00;99.90;;;;;;5106175;28;20496;-42
2023/03/11 02:38:23;;;;;;;15.73;8.77;;;-1.10;99.90;;;;;;5119355;28;20107;-43
2023/03/11 02:40:56;;;;;;;13.95;8.95;;;-1.10;99.90;;;;;;5111034;28;20023;-42
2023/03/11 02:43:30;;;;;;;16.30;8.82;;;-1.10;99.90;;;;;;5097206;28;20123;-42
2023/03/11 02:45:56;;;;;;;15.07;9.05;;;-1.10;99.90;;;;;;5110863;28;20023;-44
2023/03/11 02:48:23;;;;;;;13.10;8.30;;;-1.20;99.90;;;;;;5110828;28;20028;-53
2023/03/11 02:50:49;;;;;;;19.48;9.23;;;-1.20;99.90;;;;;;5109855;28;20085;-45
2023/03/11 02:53:15;;;;;;;13.80;8.65;;;-1.20;99.90;;;;;;5108939;28;20020;-47
2023/03/11 02:55:40;;;;;;;17.52;8.55;;;-1.30;99.90;;;;;;5110209;28;20034;-43
2023/03/11 02:58:06;;;;;;;15.63;9.27;;;-1.30;99.90;;;;;;5108914;28;20019;-51
2023/03/11 03:00:33;;;;;;;13.73;8.73;;;-1.30;99.90;;;;;;5110576;28;20068;-52
2023/03/11 03:02:59;;;;;;;15.93;8.32;;;-1.40;99.90;;;;;;5110915;28;20024;-43
2023/03/11 03:05:24;;;;;;;14.57;8.00;;;-1.40;99.90;;;;;;5111022;28;20369;-44
2023/03/11 03:07:50;;;;;;;14.40;7.93;;;-1.40;99.90;;;;;;5113112;28;20024;-46
2023/03/11 03:10:18;;;;;;;14.43;7.32;;;-1.40;99.90;;;;;;5109716;28;20024;-44
2023/03/11 03:12:43;;;;;;;13.38;6.80;;;-1.40;99.90;;;;;;5110619;28;20020;-44
2023/03/11 03:15:10;;;;;;;12.48;7.40;;;-1.30;99.90;;;;;;5111096;28;20590;-44
2023/03/11 03:17:36;;;;;;;14.15;7.55;;;-1.30;99.90;;;;;;5110427;28;20028;-45
2023/03/11 03:20:04;;;;;;;14.50;7.32;;;-1.30;99.90;;;;;;5109443;28;20106;-42
2023/03/11 03:22:30;;;;;;;16.07;7.33;;;-1.30;99.90;;;;;;5110588;28;20020;-42
2023/03/11 03:24:56;;;;;;;13.07;7.82;;;-1.30;99.90;;;;;;5108857;28;20656;-47
2023/03/11 03:27:21;;;;;;;15.15;7.47;;;-1.30;99.90;;;;;;5109772;28;20050;-42
2023/03/11 03:29:47;;;;;;;15.63;7.22;;;-1.30;99.90;;;;;;5110109;28;20036;-41
2023/03/11 03:32:13;;;;;;;15.82;7.43;;;-1.20;99.90;;;;;;5110182;28;20055;-49
2023/03/11 03:34:38;;;;;;;15.07;7.57;;;-1.30;99.90;;;;;;5096376;28;20442;-44
2023/03/11 03:37:04;;;;;;;10.60;6.43;;;-1.30;99.90;;;;;;5121853;27;20114;-42
2023/03/11 03:39:31;;;;;;;12.35;7.13;;;-1.30;99.90;;;;;;5115996;27;20144;-48
2023/03/11 03:41:57;;;;;;;12.48;7.15;;;-1.30;99.90;;;;;;5114189;28;20024;-47
2023/03/11 03:44:23;;;;;;;12.57;6.78;;;-1.30;99.90;;;;;;5113836;28;20020;-44
2023/03/11 03:46:48;;;;;;;14.25;6.60;;;-1.20;99.90;;;;;;5114143;27;20502;-46
2023/03/11 03:49:14;;;;;;;15.02;7.40;;;-1.20;99.90;;;;;;5113767;28;20055;-55
2023/03/11 03:51:40;;;;;;;11.27;6.47;;;-1.30;99.90;;;;;;5113726;28;20028;-42
2023/03/11 03:54:05;;;;;;;15.98;6.50;;;-1.30;99.90;;;;;;5114111;28;20030;-42
2023/03/11 03:56:31;;;;;;;15.45;6.55;;;-1.30;99.90;;;;;;5113874;28;20356;-41
2023/03/11 03:58:57;;;;;;;10.90;6.18;;;-1.30;99.90;;;;;;5113771;28;20030;-42
2023/03/11 04:01:22;;;;;;;13.20;6.70;;;-1.30;99.90;;;;;;5113648;28;20020;-48
2023/03/11 04:03:48;;;;;;;16.40;6.93;;;-1.20;99.90;;;;;;5113954;28;20035;-41
2023/03/11 04:06:25;;;;;;;15.68;7.15;;;-1.20;99.90;;;;;;5114308;27;20053;-41
2023/03/11 04:08:51;;;;;;;12.88;7.05;;;-1.10;99.90;;;;;;5108252;27;20035;-44
2023/03/11 04:11:18;;;;;;;16.05;7.82;;;-1.00;99.90;;;;;;5113403;28;20118;-48
2023/03/11 04:13:43;;;;;;;11.40;6.97;;;-1.00;99.90;;;;;;5113593;28;20033;-54
2023/03/11 04:16:23;;;;;;;18.25;7.63;;;-0.90;99.90;;;;;;5113528;28;20391;-49
2023/03/11 04:18:49;;;;;;;15.35;7.38;;;-0.80;99.90;;;;;;5113425;28;20051;-48
2023/03/11 04:21:15;;;;;;;12.60;7.32;;;-0.80;99.90;;;;;;5113528;28;20066;-44
2023/03/11 04:23:43;;;;;;;13.50;7.07;;;-0.80;99.90;;;;;;5111872;28;20024;-44
2023/03/11 04:26:08;;;;;;;16.55;7.00;;;-0.70;99.90;;;;;;5113310;28;20391;-47
2023/03/11 04:28:34;;;;;;;14.80;6.65;;;-0.70;99.90;;;;;;5113057;28;20024;-46
2023/03/11 04:31:00;;;;;;;14.13;7.38;;;-0.60;99.90;;;;;;5113171;28;20056;-45
2023/03/11 04:33:25;;;;;;;14.50;7.40;;;-0.60;99.90;;;;;;5093691;28;20028;-44
2023/03/11 04:35:51;;;;;;;14.57;7.97;;;-0.70;99.90;;;;;;5095544;28;20039;-46
2023/03/11 04:38:16;;;;;;;16.33;8.10;;;-0.70;99.90;;;;;;5119235;27;20053;-41
2023/03/11 04:40:42;;;;;;;18.10;7.90;;;-0.80;99.90;;;;;;5105412;27;20026;-43
2023/03/11 04:43:08;;;;;;;17.60;7.20;;;-0.90;99.90;;;;;;5106368;28;20020;-42
2023/03/11 04:45:36;;;;;;;15.45;7.55;;;-0.90;99.90;;;;;;5112651;28;20376;-43
2023/03/11 04:48:02;;;;;;;15.90;7.68;;;-0.90;99.90;;;;;;5112843;28;20016;-43
2023/03/11 04:50:27;;;;;;;15.00;7.97;;;-0.90;99.90;;;;;;5098398;28;20032;-45
2023/03/11 04:52:53;;;;;;;16.88;7.97;;;-0.90;99.90;;;;;;5111537;28;20055;-45
2023/03/11 04:55:19;;;;;;;23.75;8.40;;;-0.80;99.90;;;;;;5112727;28;20114;-42
2023/03/11 04:57:44;;;;;;;17.92;7.93;;;-0.70;99.90;;;;;;5112944;28;20479;-48
2023/03/11 05:00:14;;;;;;;17.95;7.60;;;-0.70;99.90;;;;;;5112713;28;20047;-41
2023/03/11 05:02:41;;;;;;;15.35;7.47;;;-0.70;99.90;;;;;;5112793;28;20030;-45
2023/03/11 05:05:08;;;;;;;17.73;8.18;;;-0.60;99.90;;;;;;5112685;27;20499;-42
2023/03/11 05:07:35;;;;;;;12.90;6.55;;;-0.60;99.90;;;;;;5117973;27;20053;-43
2023/03/11 05:10:01;;;;;;;11.15;7.18;;;-0.60;99.90;;;;;;5112624;28;20112;-44
2023/03/11 05:12:27;;;;;;;13.68;7.68;;;-0.60;99.90;;;;;;5122831;27;20023;-42
2023/03/11 05:14:52;;;;;;;12.35;7.60;;;-0.60;99.90;;;;;;5112511;28;20028;-43
2023/03/11 05:17:18;;;;;;;15.30;6.85;;;-0.50;99.90;;;;;;5122587;27;20450;-41
2023/03/11 05:19:44;;;;;;;15.45;7.30;;;-0.40;99.90;;;;;;5112409;28;20117;-41
2023/03/11 05:22:10;;;;;;;17.42;7.03;;;-0.40;99.90;;;;;;5112173;28;20522;-41
2023/03/11 05:24:36;;;;;;;17.42;6.82;;;-0.30;99.90;;;;;;5110041;28;20051;-41
2023/03/11 05:27:03;;;;;;;17.70;7.47;;;-0.20;99.90;;;;;;5102366;28;20062;-41
2023/03/11 05:29:29;;;;;;;16.83;7.93;;;-0.20;99.90;;;;;;5112017;28;20032;-41
2023/03/11 05:31:54;;;;;;;16.75;7.50;;;-0.30;99.90;;;;;;5112357;28;20035;-41
2023/03/11 05:34:20;;;;;;;13.75;7.88;;;-0.30;99.90;;;;;;5111987;28;20487;-41
2023/03/11 05:36:45;;;;;;;12.18;6.85;;;-0.40;99.90;;;;;;5118231;27;20120;-41
2023/03/11 05:39:11;;;;;;;14.65;6.93;;;-0.40;99.90;;;;;;5112234;28;20045;-43
2023/03/11 05:41:37;;;;;;;16.33;7.97;;;-0.50;99.90;;;;;;5097390;28;20027;-41
2023/03/11 05:44:03;;;;;;;14.00;8.10;;;-0.50;99.90;;;;;;5112094;28;20037;-44
2023/03/11 05:46:29;;;;;;;19.45;8.52;;;-0.60;99.90;;;;;;5111860;28;20035;-42
2023/03/11 05:48:55;;;;;;;11.82;7.78;;;-0.80;99.90;;;;;;5111675;28;20441;-45
2023/03/11 05:51:21;;;;;;;14.70;7.85;;;-0.80;99.90;;;;;;5111608;28;20035;-45
2023/03/11 05:53:48;;;;;;;19.67;8.65;;;-0.90;99.90;;;;;;5111632;28;20031;-42
2023/03/11 05:56:14;;;;;;;15.70;8.50;;;-0.90;99.90;;;;;;5113231;27;20031;-41
2023/03/11 05:58:40;;;;;;;15.73;7.82;;;-0.90;99.90;;;;;;5117671;27;20022;-42
2023/03/11 06:01:10;;;;;;;14.82;8.50;;;-0.80;99.90;;;;;;5119357;27;20219;-46
2023/03/11 06:03:36;;;;;;;;;;;-0.80;99.90;;;;;;5128342;27;20399;-43
2023/03/11 06:06:01;;;;;;;15.05;7.63;;;-0.70;99.90;;;;;;5128676;27;19907;-47
2023/03/11 06:08:27;;;;;;;14.55;7.72;;;-0.70;99.90;;;;;;5127567;27;20027;-46
2023/03/11 06:11:00;;;;;;;14.48;8.30;;;-0.60;99.90;;;;;;5128048;27;20400;-42
2023/03/11 06:13:26;;;;;;;21.20;8.40;;;-0.60;99.90;;;;;;5129889;27;20039;-44
2023/03/11 06:15:52;;;;;;;13.02;7.68;;;-0.50;99.90;;;;;;5127766;27;20122;-44
2023/03/11 06:18:17;;;;;;;17.75;8.07;;;-0.50;99.90;;;;;;5129604;27;20031;-44
2023/03/11 06:20:43;;;;;;;15.05;7.65;;;-0.50;99.90;;;;;;5127737;27;20027;-42
2023/03/11 06:23:09;;;;;;;12.00;7.35;;;-0.40;99.90;;;;;;5130045;27;20019;-50
2023/03/11 06:25:34;;;;;;;11.63;7.55;;;-0.40;99.90;;;;;;5127407;27;20487;-52
2023/03/11 06:28:00;;;;;;;13.48;7.15;;;-0.30;99.90;;;;;;5128739;27;20426;-41
2023/03/11 06:30:25;;;;;;;14.32;7.32;;;-0.30;99.90;;;;;;5129588;27;20081;-42
2023/03/11 06:32:51;;;;;;;15.85;7.03;;;-0.30;99.90;;;;;;5127314;27;20022;-46
2023/03/11 06:35:17;;;;;;;12.98;6.47;;;-0.30;99.90;;;;;;5128422;27;20486;-42
2023/03/11 06:37:42;;;;;;;17.52;6.78;;;-0.30;99.90;;;;;;5119354;27;20028;-42
2023/03/11 06:40:09;;;;;;;14.00;7.05;;;-0.30;99.90;;;;;;5107764;28;20028;-42
2023/03/11 06:42:35;;;;;;;14.55;7.38;;;-0.30;99.90;;;;;;5102140;28;20012;-44
2023/03/11 06:45:01;;;;;;;22.33;8.43;;;-0.20;99.90;;;;;;5110741;28;20169;-42
2023/03/11 06:47:27;;;;;;;14.45;7.43;;;-0.20;99.90;;;;;;5110676;28;20050;-44
2023/03/11 06:49:53;;;;;;;16.67;6.65;;;-0.20;99.90;;;;;;5110502;28;20023;-43
2023/03/11 06:52:19;;;;;;;13.85;6.60;;;-0.10;99.90;;;;;;5110889;28;20081;-47
2023/03/11 06:54:44;;;;;;;14.50;7.25;;;0.00;99.90;;;;;;5109560;28;20032;-43
2023/03/11 06:57:10;;;;;;;16.30;6.78;;;0.10;99.90;;;;;;5110769;28;20096;-46
2023/03/11 06:59:36;;;;;;;14.32;7.07;;;0.20;99.90;;;;;;5110850;28;20024;-46
2023/03/11 07:02:03;;;;;;;12.27;7.15;;;0.40;99.90;;;;;;5110579;28;20043;-46
2023/03/11 07:04:30;;;;;;;13.55;6.93;;;0.50;99.90;;;;;;5109655;28;20019;-46
2023/03/11 07:06:56;;;;;;;12.75;6.25;;;0.60;99.90;;;;;;5121420;28;20091;-50
2023/03/11 07:09:24;;;;;;;20.48;7.00;;;0.70;99.90;;;;;;5112780;28;20051;-45
2023/03/11 07:11:50;;;;;;;11.93;6.30;;;0.90;99.90;;;;;;5114694;28;20043;-44
2023/03/11 07:14:18;;;;;;;12.85;6.40;;;1.00;99.90;;;;;;5114533;28;20031;-42
2023/03/11 07:16:44;;;;;;;10.00;5.25;;;1.20;99.90;;;;;;5114490;28;20035;-42
2023/03/11 07:19:11;;;;;;;14.52;6.45;;;1.40;99.90;;;;;;5114013;28;20024;-50
2023/03/11 07:21:37;;;;;;;9.40;4.80;;;1.50;99.90;;;;;;5114314;28;20024;-45
2023/03/11 07:24:04;;;;;;;10.80;4.47;;;1.60;99.90;;;;;;5114463;28;20023;-45
2023/03/11 07:26:32;;;;;;;7.95;4.47;;;1.70;99.90;;;;;;5113306;28;20502;-47
2023/03/11 07:28:58;;;;;;;8.57;4.45;;;1.70;99.90;;;;;;5114106;28;20024;-43
2023/03/11 07:31:29;;;;;;;10.38;4.50;;;1.70;99.90;;;;;;5114241;28;20039;-43
2023/03/11 07:33:57;;;;;;;9.13;5.03;;;1.80;99.90;;;;;;5114575;27;20024;-50
2023/03/11 07:36:25;;;;;;;14.25;4.93;;;1.70;99.90;;;;;;5116219;27;20039;-41
2023/03/11 07:38:58;;;;;;;11.02;5.13;;;1.70;99.90;;;;;;5114274;27;20015;-42
2023/03/11 07:41:25;;;;;;;8.65;4.50;;;1.60;99.90;;;;;;5099593;28;20480;-45
2023/03/11 07:43:55;;;;;;;10.38;4.30;;;1.60;99.90;;;;;;5113875;28;20142;-46
2023/03/11 07:46:22;;;;;;;7.90;4.68;;;1.60;99.90;;;;;;5114008;28;20031;-43
2023/03/11 07:48:49;;;;;;;12.23;4.50;;;1.60;99.90;;;;;;5114242;28;20023;-50
2023/03/11 07:51:27;;;;;;;11.40;4.60;;;1.70;99.90;;;;;;5113984;28;20038;-47
2023/03/11 07:53:55;;;;;;;12.75;5.43;;;1.90;99.90;;;;;;5099969;28;20107;-44
2023/03/11 07:56:22;;;;;;;8.73;4.80;;;2.00;99.90;;;;;;5113823;28;20508;-53
2023/03/11 07:58:48;;;;;;;8.93;4.50;;;2.30;99.90;;;;;;5113752;28;20064;-42
2023/03/11 08:01:17;;;;;;;8.77;4.32;;;2.50;99.90;;;;;;5113786;28;20066;-42
2023/03/11 08:03:44;;;;;;;11.35;4.40;;;2.70;99.90;;;;;;5113693;28;20450;-42
2023/03/11 08:06:12;;;;;;;9.23;4.15;;;2.70;99.90;;;;;;5118491;27;20016;-45
2023/03/11 08:08:38;;;;;;;10.15;4.40;;;3.00;99.90;;;;;;5118194;27;20111;-45
2023/03/11 08:11:03;;;;;;;9.98;3.63;;;3.30;99.90;;;;;;5113670;28;20111;-42
2023/03/11 08:13:29;;;;;;;9.88;4.20;;;3.60;99.90;;;;;;5113573;28;20027;-44
2023/03/11 08:15:54;;;;;;;9.35;3.95;;;3.90;99.90;;;;;;5113570;28;20034;-45
2023/03/11 08:18:20;;;;;;;9.85;4.07;;;4.00;99.90;;;;;;5113700;28;20120;-45
2023/03/11 08:20:46;;;;;;;8.35;4.20;;;4.10;99.90;;;;;;5112328;28;20398;-42
2023/03/11 08:23:12;;;;;;;7.55;3.92;;;4.20;99.90;;;;;;5113401;28;20024;-42
2023/03/11 08:25:39;;;;;;;12.20;4.78;;;4.30;99.90;;;;;;5112687;27;20034;-41
2023/03/11 08:28:06;;;;;;;11.65;4.22;;;4.30;99.90;;;;;;5113857;27;20392;-42
2023/03/11 08:30:32;;;;;;;10.13;3.92;;;4.60;99.90;;;;;;5114280;27;20035;-42
2023/03/11 08:32:58;;;;;;;8.20;3.47;;;4.90;99.90;;;;;;5113876;27;20027;-46
2023/03/11 08:35:25;;;;;;;10.05;3.40;;;5.20;99.90;;;;;;5101931;27;20077;-46
2023/03/11 08:37:50;;;;;;;7.97;3.60;;;5.20;99.90;;;;;;5112855;27;20023;-48
2023/03/11 08:40:16;;;;;;;11.75;3.90;;;5.30;99.90;;;;;;5108791;27;20027;-47
2023/03/11 08:42:42;;;;;;;9.07;3.35;;;5.70;99.90;;;;;;5105456;27;20138;-48
2023/03/11 08:45:08;;;;;;;9.38;3.60;;;6.40;99.90;;;;;;5112788;27;20433;-43
2023/03/11 08:47:36;;;;;;;9.48;3.63;;;6.70;99.90;;;;;;5113145;28;20024;-44
2023/03/11 08:50:03;;;;;;;9.80;3.80;;;6.80;99.90;;;;;;5121140;27;20521;-41
2023/03/11 08:52:29;;;;;;;7.07;3.20;;;6.60;99.90;;;;;;5124587;27;20023;-47
2023/03/11 08:54:55;;;;;;;7.78;3.50;;;6.90;99.90;;;;;;5125501;27;20050;-46
2023/03/11 08:57:21;;;;;;;6.93;3.58;;;7.10;99.90;;;;;;5122331;27;20027;-47
2023/03/11 08:59:46;;;;;;;6.72;2.90;;;7.40;99.90;;;;;;5127554;27;20019;-42
2023/03/11 09:02:12;;;;;;;6.82;3.20;;;8.00;99.90;;;;;;5125632;27;20130;-47
2023/03/11 09:04:37;;;;;;;5.25;2.65;;;8.50;99.90;;;;;;5118879;27;20028;-47
2023/03/11 09:07:03;;;;;;;6.32;3.28;;;8.80;99.90;;;;;;5124593;27;20023;-44
2023/03/11 09:09:29;;;;;;;7.00;3.13;;;9.10;99.90;;;;;;5124065;27;20019;-42
2023/03/11 09:11:55;;;;;;;7.60;2.50;;;9.20;99.90;;;;;;5126685;27;20433;-42
2023/03/11 09:14:20;;;;;;;5.70;2.50;;;9.80;98.80;;;;;;5120115;27;20412;-41
2023/03/11 09:16:46;;;;;;;5.55;2.40;;;10.20;97.10;;;;;;5127037;27;20031;-42
2023/03/11 09:19:12;;;;;;;4.70;1.98;;;10.60;95.10;;;;;;5122364;27;20018;-42
2023/03/11 09:21:37;;;;;;;7.55;2.33;;;10.80;93.60;;;;;;5125767;27;20015;-50
2023/03/11 09:24:04;;;;;;;8.25;2.28;;;11.00;93.20;;;;;;5124192;27;20035;-48
2023/03/11 09:26:30;;;;;;;5.85;2.13;;;11.20;93.20;;;;;;5124082;27;20028;-49
2023/03/11 09:28:56;;;;;;;5.53;1.70;;;11.30;91.70;;;;;;5123473;27;20038;-47
2023/03/11 09:31:22;;;;;;;5.65;1.63;;;11.00;91.40;;;;;;5112964;27;20036;-45
2023/03/11 09:33:48;;;;;;;4.82;1.40;;;10.50;90.10;;;;;;5122438;27;20498;-43
2023/03/11 09:36:19;;;;;;;10.15;1.30;;;10.20;92.50;;;;;;5120582;27;20043;-49
2023/03/11 09:38:45;;;;;;;6.55;1.70;;;11.00;90.30;;;;;;5120293;27;20019;-49
2023/03/11 09:41:17;;;;;;;6.68;1.88;;;11.80;89.40;;;;;;5095346;28;20428;-42
2023/03/11 09:43:48;;;;;;;4.43;1.35;;;11.50;85.90;;;;;;5099337;27;20076;-43
2023/03/11 09:46:48;;;;;;;6.45;1.50;;;12.10;86.20;;;;;;5111804;28;20042;-48
2023/03/11 09:49:44;;;;;;;4.18;1.50;;;12.60;83.60;;;;;;5110075;27;20030;-50
2023/03/11 09:52:15;;;;;;;7.07;2.00;;;12.30;81.50;;;;;;5097492;28;20501;-42
2023/03/11 09:55:20;;;;;;;8.07;1.60;;;11.70;79.20;;;;;;5108850;28;20124;-42
2023/03/11 09:57:46;;;;;;;7.22;1.85;;;11.70;83.10;;;;;;5098682;28;20031;-42
2023/03/11 10:00:14;;;;;;;7.28;1.70;;;11.00;80.50;;;;;;5100029;28;20028;-45
2023/03/11 10:02:40;;;;;;;7.32;1.80;;;10.30;82.50;;;;;;5105428;27;20484;-42
2023/03/11 10:05:13;;;;;;;9.68;1.70;;;11.00;83.60;;;;;;5103066;28;20499;-46
2023/03/11 10:07:42;;;;;;;6.50;1.60;;;11.60;81.40;;;;;;5112346;27;20015;-45
2023/03/11 10:10:17;;;;;;;6.30;2.13;;;10.80;78.50;;;;;;5125475;27;20023;-45
2023/03/11 10:13:12;;;;;;;6.38;1.40;;;11.50;81.70;;;;;;5119893;27;20030;-48
2023/03/11 10:16:00;;;;;;;4.68;1.40;;;11.90;77.70;;;;;;5121975;27;20024;-55
2023/03/11 10:19:16;;;;;;;4.68;1.40;;;11.50;76.40;;;;;;5105147;27;20375;-49
2023/03/11 10:22:15;;;;;;;3.78;1.30;;;12.60;75.90;;;;;;5039411;28;20518;-47
2023/03/11 10:24:51;;;;;;;4.90;1.13;;;12.40;72.30;;;;;;5045197;28;20025;-43
2023/03/11 10:27:23;;;;;;;5.78;1.30;;;12.00;74.20;;;;;;5082538;27;20035;-44
2023/03/11 10:29:53;;;;;;;5.75;0.80;;;11.80;70.90;;;;;;5106703;28;20392;-51
2023/03/11 10:32:28;;;;;;;6.32;1.20;;;11.50;71.40;;;;;;5113725;28;20103;-49
2023/03/11 10:35:05;;;;;;;8.40;1.30;;;11.30;71.20;;;;;;5110269;28;20407;-44
2023/03/11 10:37:37;;;;;;;5.20;1.17;;;11.20;70.40;;;;;;5110984;28;20035;-47
2023/03/11 10:40:25;;;;;;;8.23;1.00;;;10.80;70.70;;;;;;5106484;28;20020;-45
2023/03/11 10:42:55;;;;;;;5.45;1.05;;;10.80;72.50;;;;;;5100161;28;20488;-44
2023/03/11 10:45:22;;;;;;;4.68;1.20;;;11.80;74.60;;;;;;5114145;28;20015;-42
2023/03/11 10:47:48;;;;;;;6.22;0.98;;;11.70;71.20;;;;;;5108080;28;20031;-43
2023/03/11 10:50:16;;;;;;;6.40;0.90;;;12.10;68.50;;;;;;5110879;28;20024;-42
2023/03/11 10:53:05;;;;;;;4.20;1.00;;;12.40;69.50;;;;;;5111167;28;20450;-42
2023/03/11 10:55:31;;;;;;;7.30;0.93;;;12.30;68.20;;;;;;5113825;27;20442;-42
2023/03/11 10:58:15;;;;;;;4.80;0.93;;;12.30;68.20;;;;;;5112702;28;20039;-45
2023/03/11 11:00:41;;;;;;;5.90;1.45;;;12.20;69.20;;;;;;5113825;28;20024;-45
2023/03/11 11:03:22;;;;;;;6.63;0.82;;;12.60;66.20;;;;;;5125252;28;20115;-47
2023/03/11 11:06:00;;;;;;;3.45;0.98;;;12.90;68.20;;;;;;5104627;28;20380;-48
2023/03/11 11:08:26;;;;;;;5.95;1.00;;;12.90;65.80;;;;;;5104942;28;20024;-42
2023/03/11 11:11:02;;;;;;;7.60;1.10;;;13.20;65.30;;;;;;5107833;28;20440;-45
2023/03/11 11:13:35;;;;;;;5.35;1.13;;;14.10;65.40;;;;;;5110827;28;20020;-43
2023/03/11 11:16:15;;;;;;;4.43;0.98;;;14.40;60.80;;;;;;5098395;28;20026;-44
2023/03/11 11:18:49;;;;;;;4.43;1.05;;;14.30;62.10;;;;;;5110592;28;20023;-43
2023/03/11 11:21:36;;;;;;;4.85;1.10;;;14.60;61.40;;;;;;5105735;28;20744;-42
2023/03/11 11:24:11;;;;;;;6.03;1.20;;;15.30;57.90;;;;;;5107717;28;20027;-44
2023/03/11 11:26:36;;;;;;;5.50;1.20;;;14.60;58.30;;;;;;5099150;28;20020;-43
2023/03/11 11:29:13;;;;;;;6.15;1.30;;;13.90;59.90;;;;;;5118697;28;20024;-43
2023/03/11 11:31:44;;;;;;;4.85;1.02;;;13.40;61.70;;;;;;5099541;28;20039;-46
2023/03/11 11:34:37;;;;;;;3.53;0.73;;;13.20;60.80;;;;;;5113764;28;20036;-46
2023/03/11 11:37:05;;;;;;;6.88;1.00;;;14.00;65.10;;;;;;5115680;28;20503;-41
2023/03/11 11:39:55;;;;;;;5.18;0.90;;;14.20;60.20;;;;;;5110896;28;20476;-48
2023/03/11 11:42:23;;;;;;;6.53;1.58;;;14.00;60.30;;;;;;5107365;28;20490;-46
2023/03/11 11:45:00;;;;;;;5.82;1.13;;;14.30;60.80;;;;;;5105056;27;20048;-44
2023/03/11 11:47:34;;;;;;;7.10;1.05;;;13.80;60.30;;;;;;5113852;28;20031;-51
2023/03/11 11:50:10;;;;;;;6.75;1.25;;;13.20;61.40;;;;;;5122248;28;20072;-51
2023/03/11 11:52:42;;;;;;;5.60;1.10;;;12.60;63.60;;;;;;5110180;28;20027;-45
2023/03/11 11:55:25;;;;;;;3.28;0.98;;;13.40;65.50;;;;;;5117004;27;20016;-42
2023/03/11 11:57:51;;;;;;;2.50;0.80;;;14.30;60.70;;;;;;5110717;27;20028;-42
2023/03/11 12:00:33;;;;;;;7.70;1.20;;;14.80;61.60;;;;;;5117757;27;20096;-42
2023/03/11 12:03:17;;;;;;;8.45;1.15;;;14.10;58.80;;;;;;5112944;27;20038;-41
2023/03/11 12:06:11;;;;;;;5.65;1.17;;;13.60;59.80;;;;;;5114252;27;20384;-42
2023/03/11 12:08:59;;;;;;;4.40;1.15;;;13.40;61.60;;;;;;5111803;28;20546;-42
2023/03/11 12:11:55;;;;;;;5.15;1.02;;;12.60;63.60;;;;;;5118060;27;20039;-47
2023/03/11 12:14:35;;;;;;;6.28;1.02;;;13.00;64.80;;;;;;5102558;28;20402;-42
2023/03/11 12:17:02;;;;;;;4.85;1.10;;;13.10;62.10;;;;;;5117823;27;20053;-43
2023/03/11 12:19:38;;;;;;;7.60;1.15;;;12.70;63.70;;;;;;5113874;27;20072;-43
2023/03/11 12:22:35;;;;;;;5.22;0.75;;;13.10;62.30;;;;;;5121159;27;20102;-48
2023/03/11 12:25:25;;;;;;;9.93;1.17;;;13.10;62.70;;;;;;5112374;27;20091;-46
2023/03/11 12:28:14;;;;;;;4.45;1.08;;;13.40;61.50;;;;;;5117772;27;20028;-46
2023/03/11 12:30:47;;;;;;;7.88;1.15;;;13.50;60.90;;;;;;5122748;27;20047;-43
2023/03/11 12:33:46;;;;;;;6.95;1.42;;;12.80;62.10;;;;;;5118773;27;20019;-42
2023/03/11 12:36:42;;;;;;;6.90;1.30;;;12.80;61.60;;;;;;5111018;27;20126;-47
2023/03/11 12:39:22;;;;;;;2.97;1.00;;;13.40;63.00;;;;;;5120855;27;20502;-48
2023/03/11 12:42:08;;;;;;;4.97;0.90;;;13.80;60.20;;;;;;5099581;28;20100;-48
2023/03/11 12:44:34;;;;;;;7.97;1.13;;;13.40;60.60;;;;;;5112735;27;20023;-43
2023/03/11 12:47:20;;;;;;;6.03;0.90;;;13.80;60.80;;;;;;5101048;27;20046;-43
2023/03/11 12:49:53;;;;;;;8.73;1.35;;;14.00;59.20;;;;;;5102835;28;20032;-43
2023/03/11 12:52:27;;;;;;;4.20;0.98;;;14.30;59.60;;;;;;5098308;28;20016;-42